Time;durP1;ratioP1;P1;durP2;ratioP2;P2;SDS_P1;SDS_P2;PMS_P1;PMS_P2;Temp;Humidity;BMP_temperature;BMP_pressure;BME280_temperature;BME280_humidity;BME280_pressure;Samples;Min_cycle;Max_cycle;Signal;HPM_P1;HPM_P2
2023/05/08 00:01:00;;;;;;;17.40;15.87;;;;;;;-145.94;61.82;77059.31;5115663;28;20184;-72
2023/05/08 00:03:27;;;;;;;16.80;15.37;;;;;;;-145.94;62.15;77061.34;5116417;28;20173;-72
2023/05/08 00:05:54;;;;;;;17.70;16.00;;;;;;;-145.94;61.93;77055.25;5115846;28;20254;-72
2023/05/08 00:08:21;;;;;;;17.77;16.07;;;;;;;-145.94;61.96;77057.28;5116049;28;20606;-72
2023/05/08 00:10:47;;;;;;;17.77;15.90;;;;;;;-145.94;61.97;77059.31;5115673;28;20760;-72
2023/05/08 00:13:14;;;;;;;17.73;16.00;;;;;;;-145.94;61.96;77061.34;5115592;28;20181;-72
2023/05/08 00:15:41;;;;;;;16.33;14.77;;;;;;;-145.94;61.95;77065.44;5115806;28;20224;-72
2023/05/08 00:18:07;;;;;;;17.20;15.17;;;;;;;-145.94;62.25;77059.31;5115394;28;20243;-72
2023/05/08 00:20:34;;;;;;;17.13;15.63;;;;;;;-145.94;62.28;77063.41;5116080;28;20228;-72
2023/05/08 00:23:00;;;;;;;17.70;16.00;;;;;;;-145.94;62.30;77065.44;5097494;28;20204;-72
2023/05/08 00:25:26;;;;;;;17.67;15.97;;;;;;;-145.94;62.42;77067.47;5115446;28;20655;-72
2023/05/08 00:27:53;;;;;;;16.53;15.10;;;;;;;-145.94;62.44;77067.47;5115332;28;20585;-71
2023/05/08 00:30:20;;;;;;;17.40;16.00;;;;;;;-145.94;62.37;77067.47;5115337;28;20272;-72
2023/05/08 00:32:46;;;;;;;18.73;16.60;;;;;;;-145.94;62.30;77065.44;5115260;28;20238;-72
2023/05/08 00:35:13;;;;;;;17.87;16.37;;;;;;;-145.94;62.42;77069.50;5115244;28;20717;-72
2023/05/08 00:37:40;;;;;;;17.97;16.27;;;;;;;-145.94;62.54;77073.59;5115056;28;20651;-72
2023/05/08 00:40:10;;;;;;;17.70;16.17;;;;;;;-145.94;62.75;77073.59;5096894;28;20193;-72
2023/05/08 00:42:37;;;;;;;17.30;15.67;;;;;;;-145.94;62.75;77075.63;5115355;28;20655;-72
2023/05/08 00:45:04;;;;;;;18.33;16.70;;;;;;;-145.94;62.89;77077.69;5115282;28;20187;-72
2023/05/08 00:47:31;;;;;;;19.80;17.70;;;;;;;-145.94;62.69;77073.59;5096076;28;20209;-72
2023/05/08 00:49:59;;;;;;;21.20;17.70;;;;;;;-145.94;62.73;77085.84;5096666;28;20196;-72
2023/05/08 00:52:29;;;;;;;18.10;16.30;;;;;;;-145.94;62.93;77091.94;5096662;28;20196;-72
2023/05/08 00:54:56;;;;;;;19.57;17.67;;;;;;;-145.94;62.85;77091.94;5114819;28;20217;-72
2023/05/08 00:57:23;;;;;;;19.17;17.37;;;;;;;-145.94;62.76;77094.00;5114895;28;20209;-72
2023/05/08 00:59:51;;;;;;;20.43;18.40;;;;;;;-145.94;62.78;77096.03;5115031;28;20632;-72
2023/05/08 01:02:18;;;;;;;19.27;17.27;;;;;;;-145.94;62.59;77098.06;5114647;28;20185;-72
2023/05/08 01:04:47;;;;;;;20.17;18.30;;;;;;;-145.94;62.67;77100.09;5115228;28;20201;-72
2023/05/08 01:07:13;;;;;;;18.27;16.57;;;;;;;-145.94;62.55;77102.16;5114529;28;20209;-71
2023/05/08 01:09:40;;;;;;;20.47;18.10;;;;;;;-145.94;62.86;77104.19;5096305;28;20209;-71
2023/05/08 01:12:16;;;;;;;19.40;17.50;;;;;;;-145.94;62.81;77116.41;5114509;28;20195;-72
2023/05/08 01:14:52;;;;;;;19.80;17.93;;;;;;;-145.94;62.72;77110.31;5097040;28;20268;-72
2023/05/08 01:17:23;;;;;;;18.93;16.93;;;;;;;-145.94;62.80;77110.31;5096105;28;20287;-72
2023/05/08 01:19:49;;;;;;;20.07;18.10;;;;;;;-145.94;62.65;77118.47;5114689;28;20260;-72
2023/05/08 01:22:40;;;;;;;20.70;18.57;;;;;;;-145.94;62.43;77126.63;5096078;28;20203;-72
2023/05/08 01:25:19;;;;;;;19.53;17.70;;;;;;;-145.94;62.78;77126.63;5096067;28;20666;-72
2023/05/08 01:28:12;;;;;;;20.17;18.17;;;;;;;-145.94;62.49;77128.66;5095871;28;20740;-71
2023/05/08 01:31:03;;;;;;;18.40;16.80;;;;;;;-145.94;63.00;77132.72;5114790;28;20174;-71
2023/05/08 01:33:55;;;;;;;19.33;17.67;;;;;;;-145.94;62.70;77134.78;5095959;28;20182;-72
2023/05/08 01:36:37;;;;;;;26.07;18.83;;;;;;;-145.94;62.66;77140.91;5095846;28;20215;-72
2023/05/08 01:39:13;;;;;;;18.17;16.57;;;;;;;-145.94;62.82;77142.94;5095924;28;20216;-72
2023/05/08 01:41:50;;;;;;;17.93;16.20;;;;;;;-145.94;62.74;77144.97;5095792;28;20208;-72
2023/05/08 01:44:23;;;;;;;19.47;16.93;;;;;;;-145.94;62.76;77140.91;5114336;28;20162;-72
2023/05/08 01:46:51;;;;;;;20.87;18.60;;;;;;;-145.94;62.70;77144.97;5095732;28;20308;-72
2023/05/08 01:49:33;;;;;;;21.47;19.20;;;;;;;-145.94;63.22;77163.31;5095927;28;20193;-72
2023/05/08 01:52:07;;;;;;;18.07;16.53;;;;;;;-145.94;63.33;77167.41;5095679;28;20635;-72
2023/05/08 01:54:57;;;;;;;17.83;16.37;;;;;;;-145.94;63.18;77163.31;5114209;28;20173;-72
2023/05/08 01:57:28;;;;;;;18.47;16.90;;;;;;;-145.94;63.18;77167.41;5113844;28;20777;-72
2023/05/08 01:59:59;;;;;;;19.83;18.00;;;;;;;-145.94;63.29;77171.47;5094767;28;20651;-72
2023/05/08 02:02:28;;;;;;;18.73;16.93;;;;;;;-145.94;63.26;77173.53;5095576;28;20272;-72
2023/05/08 02:04:55;;;;;;;19.50;17.57;;;;;;;-145.94;63.20;77179.63;5113994;28;20189;-72
2023/05/08 02:07:23;;;;;;;20.03;18.03;;;;;;;-145.94;63.51;77177.59;5112414;28;20205;-72
2023/05/08 02:09:50;;;;;;;19.83;18.07;;;;;;;-145.94;63.43;77181.69;5113955;28;20612;-72
2023/05/08 02:12:18;;;;;;;21.70;17.43;;;;;;;-145.94;63.47;77189.84;5095439;28;20191;-72
2023/05/08 02:14:46;;;;;;;20.37;18.37;;;;;;;-145.94;63.28;77191.88;5095375;28;20201;-72
2023/05/08 02:17:15;;;;;;;22.13;18.80;;;;;;;-145.94;63.52;77202.06;5114036;28;20720;-72
2023/05/08 02:19:44;;;;;;;23.00;20.50;;;;;;;-145.94;63.69;77204.13;5113642;28;20205;-72
2023/05/08 02:22:13;;;;;;;21.23;19.37;;;;;;;-145.94;63.59;77212.28;5112343;28;20318;-72
2023/05/08 02:24:41;;;;;;;19.83;17.73;;;;;;;-145.94;63.46;77212.28;5113558;28;20543;-72
2023/05/08 02:27:09;;;;;;;20.43;18.30;;;;;;;-145.94;63.52;77210.22;5113637;28;20300;-71
2023/05/08 02:29:37;;;;;;;19.30;17.40;;;;;;;-145.94;63.29;77212.28;5114015;28;20204;-71
2023/05/08 02:32:07;;;;;;;19.77;17.97;;;;;;;-145.94;63.57;77208.19;5113792;28;20177;-71
2023/05/08 02:34:35;;;;;;;19.23;17.40;;;;;;;-145.94;63.33;77214.31;5113782;28;20176;-71
2023/05/08 02:37:02;;;;;;;18.30;16.77;;;;;;;-145.94;63.33;77218.38;5113965;28;20266;-71
2023/05/08 02:39:31;;;;;;;20.33;18.20;;;;;;;-145.94;63.40;77226.53;5095134;28;20221;-71
2023/05/08 02:41:58;;;;;;;20.57;18.67;;;;;;;-145.94;63.12;77222.47;5113621;28;20201;-71
2023/05/08 02:44:25;;;;;;;20.63;18.53;;;;;;;-145.94;63.25;77224.50;5095123;28;20200;-72
2023/05/08 02:47:12;;;;;;;19.13;17.43;;;;;;;-145.94;63.30;77224.50;5095002;28;20215;-71
2023/05/08 02:49:43;;;;;;;21.07;19.00;;;;;;;-145.94;63.19;77232.66;5113664;28;20256;-71
2023/05/08 02:52:13;;;;;;;21.73;18.90;;;;;;;-145.94;63.07;77228.59;5113879;28;20176;-72
2023/05/08 02:54:54;;;;;;;21.80;19.63;;;;;;;-145.94;63.21;77236.75;5094908;28;20181;-73
2023/05/08 02:57:32;;;;;;;20.27;18.23;;;;;;;-145.94;63.54;77234.69;5095155;28;20284;-72
2023/05/08 03:00:03;;;;;;;20.90;18.80;;;;;;;-145.94;63.61;77242.88;5113825;28;20260;-72
2023/05/08 03:02:40;;;;;;;20.17;18.20;;;;;;;-145.94;63.21;77238.78;5095249;28;20659;-72
2023/05/08 03:05:15;;;;;;;20.07;17.80;;;;;;;-145.94;63.65;77244.91;5094927;28;20666;-72
2023/05/08 03:07:43;;;;;;;21.17;18.33;;;;;;;-145.94;63.53;77246.94;5095796;28;20713;-72
2023/05/08 03:10:15;;;;;;;19.27;17.57;;;;;;;-145.94;63.73;77253.06;5095588;28;20217;-72
2023/05/08 03:12:45;;;;;;;19.17;17.53;;;;;;;-145.94;63.57;77255.09;5099469;28;20189;-72
2023/05/08 03:15:22;;;;;;;20.63;18.53;;;;;;;-145.94;63.90;77253.06;5098519;28;20181;-72
2023/05/08 03:17:53;;;;;;;19.90;17.90;;;;;;;-145.94;64.11;77257.13;5098357;28;20220;-72
2023/05/08 03:20:23;;;;;;;18.63;17.03;;;;;;;-145.94;64.15;77261.22;5117275;28;20184;-72
2023/05/08 03:22:54;;;;;;;19.37;17.80;;;;;;;-145.94;64.23;77259.19;5098821;28;20200;-72
2023/05/08 03:25:21;;;;;;;18.13;16.53;;;;;;;-145.94;64.12;77261.22;5098464;28;20209;-72
2023/05/08 03:27:48;;;;;;;17.93;16.37;;;;;;;-145.94;64.42;77273.44;5116608;28;20335;-72
2023/05/08 03:30:16;;;;;;;17.53;16.13;;;;;;;-145.94;64.56;77275.50;5098197;28;20224;-72
2023/05/08 03:32:48;;;;;;;19.30;17.67;;;;;;;-145.94;64.45;77281.59;5098494;28;20612;-72
2023/05/08 03:35:15;;;;;;;20.33;18.33;;;;;;;-145.94;64.54;77279.56;5098137;28;20677;-72
2023/05/08 03:37:42;;;;;;;25.17;18.03;;;;;;;-145.94;64.21;77281.59;5116226;28;20223;-71
2023/05/08 03:40:09;;;;;;;20.40;18.17;;;;;;;-145.94;64.25;77275.50;5098077;28;20192;-71
2023/05/08 03:42:37;;;;;;;18.80;17.00;;;;;;;-145.94;64.45;77277.53;5116268;28;20188;-71
2023/05/08 03:45:05;;;;;;;20.00;18.07;;;;;;;-145.94;64.29;77269.38;5097997;28;20201;-71
2023/05/08 03:47:34;;;;;;;19.20;17.53;;;;;;;-145.94;64.34;77271.41;5097807;28;20240;-71
2023/05/08 03:50:01;;;;;;;20.40;18.43;;;;;;;-145.94;64.84;77271.41;5097865;28;20189;-71
2023/05/08 03:52:29;;;;;;;20.17;18.23;;;;;;;-145.94;64.97;77269.38;5116381;28;20185;-71
2023/05/08 03:54:55;;;;;;;21.07;19.07;;;;;;;-145.94;64.54;77271.41;5116361;28;20235;-71
2023/05/08 03:57:26;;;;;;;20.00;18.13;;;;;;;-145.94;64.92;77273.44;5097554;28;20215;-71
2023/05/08 04:00:19;;;;;;;20.17;18.37;;;;;;;-145.94;64.81;77273.44;5097728;28;20212;-71
2023/05/08 04:02:51;;;;;;;22.07;18.97;;;;;;;-145.94;64.93;77275.50;5097595;28;20231;-71
2023/05/08 04:05:40;;;;;;;20.60;18.30;;;;;;;-145.94;64.67;77275.50;5116145;28;20203;-73
2023/05/08 04:08:15;;;;;;;20.23;18.33;;;;;;;-145.94;64.97;77277.53;5097791;28;20188;-71
2023/05/08 04:10:49;;;;;;;26.83;19.50;;;;;;;-145.94;65.21;77283.66;5098089;28;20595;-71
2023/05/08 04:13:30;;;;;;;20.07;17.87;;;;;;;-145.94;65.14;77291.81;5098565;28;20570;-71
2023/05/08 04:16:05;;;;;;;19.57;17.67;;;;;;;-145.94;65.23;77291.81;5115761;28;20172;-71
2023/05/08 04:18:36;;;;;;;18.63;16.87;;;;;;;-145.94;65.13;77289.78;5114350;28;20204;-71
2023/05/08 04:21:08;;;;;;;21.00;18.90;;;;;;;-145.94;65.05;77291.81;5098457;28;20182;-71
2023/05/08 04:23:37;;;;;;;19.30;17.43;;;;;;;-145.94;64.95;77293.84;5096936;28;20705;-71
2023/05/08 04:26:05;;;;;;;18.93;17.27;;;;;;;-145.94;65.05;77291.81;5097111;28;20216;-71
2023/05/08 04:28:33;;;;;;;20.20;18.27;;;;;;;-145.94;65.35;77287.72;5115357;28;20189;-71
2023/05/08 04:31:02;;;;;;;20.03;18.13;;;;;;;-145.94;65.08;77287.72;5097093;28;20568;-73
2023/05/08 04:33:29;;;;;;;20.00;18.10;;;;;;;-145.94;65.17;77289.78;5096969;28;20250;-72
2023/05/08 04:35:59;;;;;;;19.97;17.87;;;;;;;-145.94;65.21;77287.72;5096909;28;20663;-71
2023/05/08 04:38:26;;;;;;;19.93;17.73;;;;;;;-145.94;64.90;77287.72;5096787;28;20212;-71
2023/05/08 04:40:53;;;;;;;19.47;17.63;;;;;;;-145.94;65.00;77285.69;5113886;28;20213;-71
2023/05/08 04:43:20;;;;;;;19.60;17.80;;;;;;;-145.94;65.14;77283.66;5096826;28;20201;-71
2023/05/08 04:45:46;;;;;;;19.63;17.60;;;;;;;-145.94;65.46;77275.50;5096670;28;20296;-71
2023/05/08 04:48:13;;;;;;;19.80;18.00;;;;;;;-145.94;65.14;77273.44;5096626;28;20238;-71
2023/05/08 04:50:39;;;;;;;24.93;18.53;;;;;;;-145.94;65.26;77273.44;5114941;28;20670;-71
2023/05/08 04:53:05;;;;;;;20.00;17.90;;;;;;;-145.94;65.13;77269.38;5113601;28;20201;-71
2023/05/08 04:55:32;;;;;;;21.63;19.43;;;;;;;-145.94;65.09;77265.28;5096564;28;20189;-71
2023/05/08 04:57:58;;;;;;;21.97;19.87;;;;;;;-145.94;65.11;77257.13;5114956;28;20250;-72
2023/05/08 05:00:25;;;;;;;19.23;17.57;;;;;;;-145.94;65.14;77257.13;5096516;28;20191;-72
2023/05/08 05:02:51;;;;;;;21.70;19.47;;;;;;;-145.94;65.26;77251.03;5096648;28;20201;-72
2023/05/08 05:05:19;;;;;;;19.53;17.80;;;;;;;-145.94;65.23;77240.81;5096943;28;20189;-72
2023/05/08 05:07:45;;;;;;;21.87;18.83;;;;;;;-145.94;65.37;77228.59;5096231;28;20665;-71
2023/05/08 05:10:12;;;;;;;23.37;20.80;;;;;;;-145.94;65.32;77218.38;5096283;28;20189;-71
2023/05/08 05:12:39;;;;;;;24.50;18.53;;;;;;;-145.94;65.31;77224.50;5096368;28;20224;-72
2023/05/08 05:15:06;;;;;;;22.83;20.37;;;;;;;-145.94;64.74;77206.16;5114852;28;20234;-72
2023/05/08 05:17:34;;;;;;;22.43;20.23;;;;;;;-145.94;64.66;77208.19;5096012;28;20213;-72
2023/05/08 05:20:01;;;;;;;24.10;19.13;;;;;;;-145.94;64.69;77208.19;5096378;28;20595;-72
2023/05/08 05:22:28;;;;;;;19.20;17.40;;;;;;;-145.94;64.79;77214.31;5114306;28;20612;-72
2023/05/08 05:24:54;;;;;;;19.60;17.73;;;;;;;-145.94;64.97;77220.44;5096041;28;20191;-72
2023/05/08 05:27:21;;;;;;;18.60;16.90;;;;;;;-145.94;65.05;77214.31;5095825;28;20316;-71
2023/05/08 05:29:47;;;;;;;19.93;18.03;;;;;;;-145.94;64.76;77214.31;5096275;28;20184;-72
2023/05/08 05:32:14;;;;;;;23.00;19.87;;;;;;;-145.94;64.67;77214.31;5095945;28;20177;-72
2023/05/08 05:34:41;;;;;;;23.03;19.17;;;;;;;-145.94;64.62;77216.34;5095663;28;20577;-72
2023/05/08 05:37:08;;;;;;;20.83;18.63;;;;;;;-145.94;64.58;77218.38;5095865;28;20213;-71
2023/05/08 05:39:35;;;;;;;24.00;19.47;;;;;;;-145.94;64.91;77228.59;5095856;28;20209;-72
2023/05/08 05:42:01;;;;;;;23.23;19.20;;;;;;;-145.94;65.00;77242.88;5114077;28;20202;-72
2023/05/08 05:44:28;;;;;;;22.10;18.33;;;;;;;-145.94;65.61;77234.69;5113911;28;20227;-72
2023/05/08 05:46:55;;;;;;;21.50;19.33;;;;;;;-145.94;65.49;77228.59;5095605;28;20632;-71
2023/05/08 05:49:21;;;;;;;23.07;20.80;;;;;;;-145.94;65.79;77230.63;5114133;28;20615;-72
2023/05/08 05:51:47;;;;;;;21.00;18.80;;;;;;;-145.94;66.05;77226.53;5095568;28;20566;-72
2023/05/08 05:54:15;;;;;;;22.53;20.23;;;;;;;-145.94;65.72;77226.53;5095530;28;20189;-72
2023/05/08 05:56:41;;;;;;;25.30;22.20;;;;;;;-145.94;65.68;77220.44;5095483;28;20205;-71
2023/05/08 05:59:08;;;;;;;31.00;21.73;;;;;;;-145.94;65.58;77220.44;5095747;28;20698;-72
2023/05/08 06:01:34;;;;;;;27.13;21.17;;;;;;;-145.94;65.64;77224.50;5095524;28;20191;-72
2023/05/08 06:04:01;;;;;;;22.53;19.43;;;;;;;-145.94;65.33;77210.22;5095587;28;20219;-72
2023/05/08 06:06:27;;;;;;;22.00;19.80;;;;;;;-145.94;65.57;77202.06;5095367;28;20204;-71
2023/05/08 06:08:54;;;;;;;27.93;20.30;;;;;;;-145.94;65.58;77200.03;5095369;28;20192;-71
2023/05/08 06:11:21;;;;;;;22.13;19.83;;;;;;;-145.94;65.47;77191.88;5095414;28;20225;-71
2023/05/08 06:13:48;;;;;;;25.63;20.63;;;;;;;-145.94;65.38;77191.88;5095406;28;20667;-71
2023/05/08 06:16:16;;;;;;;22.07;19.77;;;;;;;-145.94;65.23;77185.75;5095284;28;20677;-71
2023/05/08 06:18:43;;;;;;;22.67;20.47;;;;;;;-145.94;65.36;77195.97;5095229;28;20204;-71
2023/05/08 06:21:10;;;;;;;27.47;20.87;;;;;;;-145.94;65.37;77191.88;5113541;28;20536;-71
2023/05/08 06:23:36;;;;;;;38.20;22.33;;;;;;;-145.94;65.61;77189.84;5114150;28;20205;-71
2023/05/08 06:26:03;;;;;;;23.57;20.47;;;;;;;-145.94;65.43;77181.69;5113670;28;20241;-71
2023/05/08 06:28:29;;;;;;;25.23;21.03;;;;;;;-145.94;65.65;77181.69;5113479;28;20196;-71
2023/05/08 06:30:55;;;;;;;28.57;20.73;;;;;;;-145.94;65.28;77177.59;5113515;28;20256;-71
2023/05/08 06:33:22;;;;;;;35.60;22.07;;;;;;;-145.94;65.68;77175.56;5113390;28;20247;-71
2023/05/08 06:35:52;;;;;;;23.77;20.87;;;;;;;-145.94;65.67;77167.41;5113458;28;20188;-70
2023/05/08 06:38:18;;;;;;;27.97;21.33;;;;;;;-145.94;65.35;77157.22;5113417;28;20201;-71
2023/05/08 06:40:45;;;;;;;33.53;21.90;;;;;;;-145.94;65.96;77144.97;5113442;28;20187;-71
2023/05/08 06:43:12;;;;;;;30.27;21.80;;;;;;;-145.94;65.87;77132.72;5113283;28;20185;-71
2023/05/08 06:45:39;;;;;;;23.20;20.27;;;;;;;-145.94;66.13;77124.56;5114451;28;20581;-70
2023/05/08 06:48:05;;;;;;;23.63;19.87;;;;;;;-145.94;65.96;77120.50;5117505;28;20189;-71
2023/05/08 06:50:32;;;;;;;23.00;19.30;;;;;;;-145.94;65.68;77104.19;5117516;28;20273;-71
2023/05/08 06:52:58;;;;;;;23.90;20.20;;;;;;;-145.94;65.70;77096.03;5117780;28;20677;-71
2023/05/08 06:55:25;;;;;;;22.20;19.80;;;;;;;-145.94;65.66;77087.88;5117556;28;20169;-71
2023/05/08 06:57:51;;;;;;;21.73;19.30;;;;;;;-145.94;65.65;77085.84;5117016;28;20211;-71
2023/05/08 07:00:18;;;;;;;26.40;18.80;;;;;;;-145.94;65.48;77073.59;5117135;28;20212;-71
2023/05/08 07:02:44;;;;;;;20.27;18.37;;;;;;;-145.94;64.97;77065.44;5117319;28;20609;-71
2023/05/08 07:05:11;;;;;;;20.73;18.63;;;;;;;-145.94;65.06;77065.44;5116983;28;20221;-71
2023/05/08 07:07:37;;;;;;;24.20;18.43;;;;;;;-145.94;65.21;77057.28;5116965;28;20702;-71
2023/05/08 07:10:04;;;;;;;20.33;18.20;;;;;;;-145.94;65.22;77047.09;5116985;28;20185;-72
2023/05/08 07:12:33;;;;;;;23.13;18.20;;;;;;;-145.94;65.18;77045.03;5116870;28;20185;-72
2023/05/08 07:14:59;;;;;;;20.80;17.90;;;;;;;-145.94;65.49;77043.00;5116877;28;20217;-72
2023/05/08 07:17:36;;;;;;;32.47;19.27;;;;;;;-145.94;65.14;77032.81;5116736;28;20208;-72
2023/05/08 07:20:03;;;;;;;20.83;18.83;;;;;;;-145.94;64.75;77026.69;5117157;28;20201;-72
2023/05/08 07:22:30;;;;;;;26.80;20.10;;;;;;;-145.94;64.51;77022.63;5117273;28;20272;-72
2023/05/08 07:24:56;;;;;;;23.53;21.00;;;;;;;-145.94;64.30;77010.38;5117225;28;20666;-72
2023/05/08 07:27:23;;;;;;;30.47;21.53;;;;;;;-145.94;64.03;77010.38;5116553;28;20204;-71
2023/05/08 07:29:49;;;;;;;21.13;18.87;;;;;;;-145.94;64.01;77006.31;5116617;28;20272;-71
2023/05/08 07:32:16;;;;;;;26.73;18.70;;;;;;;-145.94;64.43;77004.25;5116467;28;20670;-71
2023/05/08 07:34:43;;;;;;;29.90;20.00;;;;;;;-145.94;64.71;77002.22;5116502;28;20189;-71
2023/05/08 07:37:09;;;;;;;27.10;20.07;;;;;;;-145.94;64.48;76992.03;5116376;28;20205;-71
2023/05/08 07:39:35;;;;;;;18.30;14.07;;;;;;;-145.94;64.78;76973.66;5116300;28;20701;-72
2023/05/08 07:42:02;;;;;;;24.20;15.70;;;;;;;-145.94;64.84;76963.47;5116327;28;20554;-72
2023/05/08 07:44:31;;;;;;;20.10;18.00;;;;;;;-145.94;64.73;76951.25;5116291;28;20185;-72
2023/05/08 07:47:12;;;;;;;16.37;15.07;;;;;;;-145.94;64.65;76945.13;5116441;28;20220;-72
2023/05/08 07:49:39;;;;;;;15.23;13.73;;;;;;;-145.94;64.71;76936.97;5116373;28;20181;-71
2023/05/08 07:52:05;;;;;;;14.13;12.93;;;;;;;-145.94;63.92;76934.94;5116143;28;20673;-72
2023/05/08 07:54:31;;;;;;;14.77;13.47;;;;;;;-145.94;63.90;76928.81;5116072;28;20555;-72
2023/05/08 07:56:58;;;;;;;15.57;14.27;;;;;;;-145.94;64.07;76918.63;5115313;28;20201;-72
2023/05/08 07:59:24;;;;;;;16.10;14.67;;;;;;;-145.94;63.80;76914.53;5116273;28;20204;-72
2023/05/08 08:01:51;;;;;;;34.07;15.30;;;;;;;-145.94;63.77;76910.47;5115915;28;20193;-72
2023/05/08 08:04:17;;;;;;;16.00;14.43;;;;;;;-145.94;63.65;76896.19;5115904;28;20184;-72
2023/05/08 08:06:44;;;;;;;22.40;15.80;;;;;;;-145.94;63.61;76885.97;5116001;28;20614;-71
2023/05/08 08:09:11;;;;;;;16.20;14.70;;;;;;;-145.94;63.69;76881.91;5116620;28;20186;-72
2023/05/08 08:11:37;;;;;;;19.37;13.97;;;;;;;-145.94;63.22;76877.81;5115739;28;20189;-72
2023/05/08 08:14:03;;;;;;;17.40;15.80;;;;;;;-145.94;63.46;76881.91;5115962;28;20600;-73
2023/05/08 08:16:30;;;;;;;16.73;15.27;;;;;;;-145.94;62.96;76873.75;5115814;28;20679;-73
2023/05/08 08:18:59;;;;;;;17.40;15.70;;;;;;;-145.94;62.84;76869.66;5116048;28;20215;-73
2023/05/08 08:21:26;;;;;;;15.47;14.07;;;;;;;-145.94;62.78;76857.44;5115853;28;20710;-73
2023/05/08 08:23:52;;;;;;;15.63;14.33;;;;;;;-145.94;63.16;76841.13;5115824;28;20525;-73
2023/05/08 08:26:18;;;;;;;15.03;13.73;;;;;;;-145.94;62.98;76832.97;5115303;28;20721;-72
2023/05/08 08:28:45;;;;;;;15.43;13.47;;;;;;;-145.94;62.85;76824.81;5115379;28;20643;-73
2023/05/08 08:31:11;;;;;;;14.10;12.77;;;;;;;-145.94;62.43;76814.63;5115368;28;20277;-73
2023/05/08 08:33:37;;;;;;;12.20;11.43;;;;;;;-145.94;62.80;76810.53;5115539;28;20639;-73
2023/05/08 08:36:05;;;;;;;13.07;11.73;;;;;;;-145.94;62.27;76790.16;5115203;28;20205;-72
2023/05/08 08:38:31;;;;;;;12.57;11.27;;;;;;;-145.94;61.53;76786.06;5115194;28;20191;-72
2023/05/08 08:40:57;;;;;;;14.87;9.70;;;;;;;-145.94;61.77;76777.91;5115419;28;20200;-72
2023/05/08 08:43:24;;;;;;;9.63;8.80;;;;;;;-145.94;61.46;76765.66;5115378;28;20542;-72
2023/05/08 08:45:51;;;;;;;6.77;6.47;;;;;;;-145.94;60.06;76751.41;5115535;28;20186;-71
2023/05/08 08:48:18;;;;;;;6.50;6.40;;;;;;;-145.94;58.74;76747.31;5114995;28;20193;-73
2023/05/08 08:50:46;;;;;;;5.77;5.60;;;;;;;-145.94;58.96;76726.94;5115003;28;20173;-72
2023/05/08 08:53:26;;;;;;;5.83;5.67;;;;;;;-145.94;58.60;76722.84;5115151;28;20185;-72
2023/05/08 08:55:56;;;;;;;5.13;5.13;;;;;;;-145.94;57.78;76718.78;5114756;28;20192;-71
2023/05/08 08:58:37;;;;;;;7.90;4.53;;;;;;;-145.94;57.99;76700.41;5115357;28;20675;-72
2023/05/08 09:01:06;;;;;;;5.07;4.97;;;;;;;-145.94;56.49;76696.34;5115490;28;20516;-72
2023/05/08 09:03:33;;;;;;;5.00;4.90;;;;;;;-145.94;56.83;76700.41;5115327;28;20230;-72
2023/05/08 09:06:00;;;;;;;5.17;5.07;;;;;;;-145.94;56.77;76696.34;5114611;28;20213;-72
2023/05/08 09:08:27;;;;;;;5.80;5.33;;;;;;;-145.94;57.05;76688.19;5114196;28;20185;-72
2023/05/08 09:10:57;;;;;;;4.93;4.83;;;;;;;-145.94;57.35;76694.31;5114626;28;20186;-72
2023/05/08 09:13:25;;;;;;;5.13;5.03;;;;;;;-145.94;57.29;76688.19;5115093;28;20611;-72
2023/05/08 09:15:51;;;;;;;5.00;5.00;;;;;;;-145.94;57.79;76684.09;5114387;28;20193;-71
2023/05/08 09:18:18;;;;;;;4.13;4.13;;;;;;;-145.94;56.99;76688.19;5114406;28;20205;-72
2023/05/08 09:20:44;;;;;;;6.63;4.50;;;;;;;-145.94;56.71;76665.75;5114970;28;20189;-72
2023/05/08 09:23:13;;;;;;;5.83;3.53;;;;;;;-145.94;55.67;76667.78;5114611;28;20195;-72
2023/05/08 09:25:44;;;;;;;3.53;3.43;;;;;;;-145.94;55.88;76661.69;5114459;28;20187;-71
2023/05/08 09:28:22;;;;;;;4.33;3.90;;;;;;;-145.94;55.59;76653.53;5114320;28;20570;-72
2023/05/08 09:30:53;;;;;;;4.47;4.43;;;;;;;-145.94;55.64;76659.63;5114286;28;20169;-72
2023/05/08 09:33:20;;;;;;;4.50;4.30;;;;;;;-145.94;55.76;76657.59;5114784;28;20257;-72
2023/05/08 09:35:47;;;;;;;23.13;7.47;;;;;;;-145.94;55.96;76655.56;5114078;28;20193;-72
2023/05/08 09:38:36;;;;;;;4.43;4.13;;;;;;;-145.94;56.06;76653.53;5114403;28;20669;-72
2023/05/08 09:41:09;;;;;;;9.30;4.43;;;;;;;-145.94;55.80;76655.56;5114263;28;20203;-72
2023/05/08 09:43:37;;;;;;;5.20;5.00;;;;;;;-145.94;56.18;76643.31;5114530;28;20184;-72
2023/05/08 09:46:20;;;;;;;5.67;5.37;;;;;;;-145.94;56.41;76651.47;5113927;28;20572;-71
2023/05/08 09:48:48;;;;;;;6.30;5.90;;;;;;;-145.94;56.88;76645.38;5113948;28;20204;-72
2023/05/08 09:51:15;;;;;;;6.53;6.07;;;;;;;-145.94;57.13;76653.53;5113989;28;20177;-72
2023/05/08 09:53:41;;;;;;;11.07;6.63;;;;;;;-145.94;57.33;76645.38;5114199;28;20189;-72
2023/05/08 09:56:08;;;;;;;41.77;7.50;;;;;;;-145.94;57.68;76643.31;5113750;28;20295;-72
2023/05/08 09:58:39;;;;;;;6.40;6.20;;;;;;;-145.94;57.66;76635.16;5095536;28;20189;-71
2023/05/08 10:01:07;;;;;;;6.43;6.33;;;;;;;-145.94;58.15;76631.09;5113938;28;20689;-72
2023/05/08 10:03:49;;;;;;;6.20;6.10;;;;;;;-145.94;57.84;76635.16;5114238;28;20217;-72
2023/05/08 10:06:15;;;;;;;7.33;7.03;;;;;;;-145.94;57.92;76629.06;5113652;28;20209;-72
2023/05/08 10:08:42;;;;;;;6.07;5.97;;;;;;;-145.94;57.73;76624.97;5113639;28;20185;-72
2023/05/08 10:11:18;;;;;;;7.33;7.03;;;;;;;-145.94;57.17;76629.06;5114251;28;20731;-72
2023/05/08 10:13:46;;;;;;;7.30;7.00;;;;;;;-145.94;57.13;76641.28;5113599;28;20204;-72
2023/05/08 10:16:17;;;;;;;5.70;5.70;;;;;;;-145.94;57.20;76643.31;5113813;28;20295;-71
2023/05/08 10:18:47;;;;;;;6.17;5.97;;;;;;;-145.94;57.19;76620.91;5114007;28;20165;-71
2023/05/08 10:21:15;;;;;;;6.27;5.87;;;;;;;-145.94;56.97;76629.06;5115940;28;20285;-70
2023/05/08 10:23:43;;;;;;;7.23;5.43;;;;;;;-145.94;57.37;76616.81;5117800;28;20269;-71
2023/05/08 10:26:15;;;;;;;5.53;5.27;;;;;;;-145.94;56.79;76622.94;5117929;28;20246;-69
2023/05/08 10:28:48;;;;;;;4.40;4.30;;;;;;;-145.94;56.49;76627.00;5117725;28;20181;-71
2023/05/08 10:31:17;;;;;;;5.37;5.37;;;;;;;-145.94;56.70;76627.00;5117932;28;20197;-71
2023/05/08 10:33:45;;;;;;;5.80;5.70;;;;;;;-145.94;56.94;76624.97;5117766;28;20189;-71
2023/05/08 10:36:13;;;;;;;6.37;5.53;;;;;;;-145.94;56.84;76620.91;5117773;28;20300;-71
2023/05/08 10:38:40;;;;;;;11.73;5.30;;;;;;;-145.94;56.98;76614.78;5117533;28;20556;-71
2023/05/08 10:41:09;;;;;;;5.53;5.23;;;;;;;-145.94;55.89;76620.91;5117896;28;20275;-71
2023/05/08 10:43:40;;;;;;;4.80;4.70;;;;;;;-145.94;55.71;76618.84;5117714;28;20225;-71
2023/05/08 10:46:52;;;;;;;4.73;4.70;;;;;;;-145.94;56.17;76608.66;5117855;28;20241;-71
2023/05/08 10:49:27;;;;;;;5.30;4.60;;;;;;;-145.94;56.30;76602.53;5097030;28;20389;-71
2023/05/08 10:52:06;;;;;;;4.27;4.27;;;;;;;-145.94;55.39;76602.53;5117887;28;20256;-71
2023/05/08 10:55:16;;;;;;;4.73;4.50;;;;;;;-145.94;55.22;76602.53;5117871;28;20192;-72
2023/05/08 10:58:12;;;;;;;4.87;4.67;;;;;;;-145.94;56.08;76606.63;5117384;28;20213;-71
2023/05/08 11:00:58;;;;;;;6.03;5.93;;;;;;;-145.94;55.94;76602.53;5117661;28;20292;-71
2023/05/08 11:03:31;;;;;;;5.77;5.37;;;;;;;-145.94;55.89;76612.75;5117112;28;20179;-71
2023/05/08 11:06:00;;;;;;;5.50;5.40;;;;;;;-145.94;55.48;76610.69;5116912;28;20577;-70
2023/05/08 11:08:27;;;;;;;5.90;5.80;;;;;;;-145.94;55.50;76616.81;5116960;28;20177;-72
2023/05/08 11:11:00;;;;;;;7.27;4.93;;;;;;;-145.94;55.34;76606.63;5116834;28;20213;-71
2023/05/08 11:13:37;;;;;;;4.43;4.43;;;;;;;-145.94;54.68;76606.63;5117158;28;20572;-71
2023/05/08 11:16:05;;;;;;;13.23;4.83;;;;;;;-145.94;54.88;76604.59;5117302;28;20244;-70